createdAt,value
2018-03-26T00:00:35.943Z,42.59
2018-03-26T00:03:01.761Z,43.09
2018-03-26T00:05:27.574Z,42.45
2018-03-26T00:07:53.427Z,42.66
2018-03-26T00:10:19.278Z,42.94
2018-03-26T00:12:45.142Z,42.79
2018-03-26T00:15:10.956Z,42.68
2018-03-26T00:17:36.885Z,42.36
2018-03-26T00:20:02.703Z,42.95
2018-03-26T00:22:28.551Z,42.32
2018-03-26T00:24:54.368Z,42.71
2018-03-26T00:27:20.178Z,42.40
2018-03-26T00:29:45.990Z,42.75
2018-03-26T00:32:11.816Z,42.67
2018-03-26T00:34:37.647Z,43.53
2018-03-26T00:37:03.515Z,43.33
2018-03-26T00:39:29.328Z,43.36
2018-03-26T00:41:55.141Z,43.35
2018-03-26T00:44:20.954Z,43.29
2018-03-26T00:46:46.771Z,43.02
2018-03-26T00:49:12.586Z,43.50
2018-03-26T00:51:38.405Z,43.45
2018-03-26T00:54:04.222Z,43.42
2018-03-26T00:56:30.036Z,43.50
2018-03-26T00:58:55.854Z,43.46
2018-03-26T01:01:21.666Z,43.36
2018-03-26T01:03:47.480Z,43.23
2018-03-26T01:06:13.294Z,43.47
2018-03-26T01:08:39.102Z,43.47
2018-03-26T01:11:04.910Z,43.39
2018-03-26T01:13:30.726Z,43.35
2018-03-26T01:15:56.545Z,43.30
2018-03-26T01:18:22.369Z,43.51
2018-03-26T01:20:48.179Z,43.19
2018-03-26T01:23:13.997Z,43.38
2018-03-26T01:25:39.809Z,42.91
2018-03-26T01:28:05.614Z,43.04
2018-03-26T01:30:31.434Z,43.42
2018-03-26T01:32:57.241Z,43.26
2018-03-26T01:35:23.056Z,43.20
2018-03-26T01:37:48.870Z,42.95
2018-03-26T01:40:14.683Z,43.21
2018-03-26T01:42:40.494Z,42.80
2018-03-26T01:45:06.306Z,42.80
2018-03-26T01:47:32.169Z,42.70
2018-03-26T01:49:58.021Z,42.68
2018-03-26T01:52:23.834Z,43.00
2018-03-26T01:54:49.674Z,42.34
2018-03-26T01:57:15.487Z,42.47
2018-03-26T01:59:41.306Z,42.41
2018-03-26T02:02:07.126Z,42.53
2018-03-26T02:04:32.978Z,43.30
2018-03-26T02:06:58.794Z,42.26
2018-03-26T02:09:24.606Z,42.14
2018-03-26T02:11:50.413Z,42.86
2018-03-26T02:14:16.224Z,43.01
2018-03-26T02:16:42.084Z,43.45
2018-03-26T02:19:07.894Z,42.49
2018-03-26T02:21:33.715Z,42.52
2018-03-26T02:23:59.523Z,42.67
2018-03-26T02:26:25.374Z,42.61
2018-03-26T02:28:51.187Z,43.09
2018-03-26T02:31:16.998Z,42.34
2018-03-26T02:33:42.820Z,42.17
2018-03-26T02:36:08.648Z,41.86
2018-03-26T02:38:34.507Z,42.05
2018-03-26T02:41:00.322Z,42.21
2018-03-26T02:43:26.139Z,42.64
2018-03-26T02:45:52.779Z,42.58
2018-03-26T02:48:18.626Z,43.03
2018-03-26T02:50:44.482Z,43.33
2018-03-26T02:53:10.318Z,43.57
2018-03-26T02:55:36.127Z,42.96
2018-03-26T02:58:01.978Z,43.48
2018-03-26T03:00:27.791Z,43.32
2018-03-26T03:02:53.604Z,43.42
2018-03-26T03:05:19.417Z,43.30
2018-03-26T03:07:45.231Z,42.89
2018-03-26T03:10:11.045Z,42.67
2018-03-26T03:12:36.899Z,43.17
2018-03-26T03:15:02.726Z,43.05
2018-03-26T03:17:28.570Z,43.29
2018-03-26T03:19:54.382Z,43.24
2018-03-26T03:22:20.226Z,43.32
2018-03-26T03:24:46.070Z,43.66
2018-03-26T03:27:11.926Z,43.34
2018-03-26T03:29:37.746Z,43.36
2018-03-26T03:32:03.591Z,43.06
2018-03-26T03:34:29.442Z,43.05
2018-03-26T03:36:55.254Z,42.92
2018-03-26T03:39:21.059Z,43.58
2018-03-26T03:41:47.814Z,43.37
2018-03-26T03:44:13.626Z,43.34
2018-03-26T03:46:39.475Z,43.81
2018-03-26T03:49:05.338Z,43.84
2018-03-26T03:51:31.154Z,43.45
2018-03-26T03:53:56.998Z,42.52
2018-03-26T03:56:22.809Z,42.31
2018-03-26T03:58:48.664Z,43.35
2018-03-26T04:01:14.514Z,42.83
2018-03-26T04:03:40.322Z,42.50
2018-03-26T04:06:06.132Z,42.79
2018-03-26T04:08:31.945Z,43.59
2018-03-26T04:10:57.766Z,43.41
2018-03-26T04:13:23.580Z,42.89
2018-03-26T04:15:49.394Z,43.22
2018-03-26T04:18:15.210Z,43.70
2018-03-26T04:20:41.031Z,43.32
2018-03-26T04:23:06.842Z,42.85
2018-03-26T04:25:32.762Z,43.70
2018-03-26T04:27:58.582Z,42.72
2018-03-26T04:30:24.394Z,42.41
2018-03-26T04:32:50.206Z,43.07
2018-03-26T04:35:16.029Z,42.83
2018-03-26T04:37:41.845Z,43.00
2018-03-26T04:40:07.661Z,42.58
2018-03-26T04:42:33.470Z,42.71
2018-03-26T04:44:59.286Z,43.00
2018-03-26T04:47:25.130Z,42.38
2018-03-26T04:49:50.944Z,43.12
2018-03-26T04:52:16.754Z,42.99
2018-03-26T04:54:42.571Z,43.19
2018-03-26T04:57:08.387Z,42.63
2018-03-26T04:59:34.194Z,42.37
2018-03-26T05:02:00.011Z,42.81
2018-03-26T05:04:25.834Z,42.50
2018-03-26T05:06:51.718Z,42.82
2018-03-26T05:09:17.531Z,42.18
2018-03-26T05:11:43.435Z,43.11
2018-03-26T05:14:09.238Z,42.63
2018-03-26T05:16:36.124Z,43.01
2018-03-26T05:19:01.990Z,43.32
2018-03-26T05:21:27.810Z,43.34
2018-03-26T05:23:53.627Z,42.69
2018-03-26T05:26:19.453Z,42.23
2018-03-26T05:28:45.270Z,42.11
2018-03-26T05:31:11.150Z,42.81
2018-03-26T05:33:36.927Z,42.14
2018-03-26T05:36:02.748Z,41.59
2018-03-26T05:38:28.563Z,41.89
2018-03-26T05:40:54.383Z,41.96
2018-03-26T05:43:20.190Z,41.56
2018-03-26T05:45:46.003Z,41.40
2018-03-26T05:48:11.818Z,42.02
2018-03-26T05:50:37.693Z,42.09
2018-03-26T05:53:03.518Z,41.66
2018-03-26T05:55:29.375Z,42.30
2018-03-26T05:57:56.078Z,42.60
2018-03-26T06:00:21.970Z,42.49
2018-03-26T06:02:47.922Z,42.49
2018-03-26T06:05:13.730Z,42.36
2018-03-26T06:07:39.543Z,42.02
2018-03-26T06:10:05.394Z,41.87
2018-03-26T06:12:31.216Z,41.87
2018-03-26T06:15:04.136Z,41.96
2018-03-26T06:17:30.959Z,42.25
2018-03-26T06:19:56.827Z,43.02
2018-03-26T06:22:23.494Z,43.81
2018-03-26T06:24:49.343Z,43.47
2018-03-26T06:27:15.213Z,42.74
2018-03-26T06:29:41.047Z,42.53
2018-03-26T06:32:06.922Z,43.50
2018-03-26T06:34:32.749Z,42.40
2018-03-26T06:39:57.189Z,42.83
2018-03-26T06:42:23.006Z,42.95
2018-03-26T06:44:48.846Z,42.67
2018-03-26T06:47:14.744Z,42.82
2018-03-26T06:49:40.526Z,43.17
2018-03-26T06:52:06.388Z,43.18
2018-03-26T06:54:32.195Z,43.04
2018-03-26T06:56:59.571Z,42.89
2018-03-26T06:59:25.430Z,42.78
2018-03-26T07:01:51.250Z,42.66
2018-03-26T07:04:17.102Z,43.37
2018-03-26T07:06:42.917Z,43.17
2018-03-26T07:09:09.379Z,43.79
2018-03-26T07:11:35.186Z,43.71
2018-03-26T07:14:01.043Z,43.54
2018-03-26T07:16:26.900Z,43.48
2018-03-26T07:18:52.774Z,43.23
2018-03-26T07:21:18.622Z,43.54
2018-03-26T07:23:44.438Z,42.50
2018-03-26T07:26:10.299Z,42.60
2018-03-26T07:28:36.134Z,43.24
2018-03-26T07:31:01.949Z,43.57
2018-03-26T07:33:27.822Z,43.85
2018-03-26T07:35:53.644Z,44.10
2018-03-26T07:38:19.486Z,43.91
2018-03-26T07:40:45.290Z,43.79
2018-03-26T07:43:11.154Z,43.99
2018-03-26T07:45:37.083Z,43.94
2018-03-26T07:48:02.943Z,44.04
2018-03-26T07:50:28.763Z,44.12
2018-03-26T07:52:55.402Z,44.07
2018-03-26T07:55:21.228Z,44.00
2018-03-26T07:57:47.051Z,44.19
2018-03-26T08:00:12.880Z,43.42
2018-03-26T08:02:38.695Z,43.43
2018-03-26T08:05:04.621Z,43.53
2018-03-26T08:07:30.610Z,43.35
2018-03-26T08:09:56.458Z,43.45
2018-03-26T08:12:22.454Z,42.84
2018-03-26T08:14:48.270Z,42.17
2018-03-26T08:17:14.169Z,42.89
2018-03-26T08:19:39.968Z,42.98
2018-03-26T08:22:05.774Z,43.49
2018-03-26T08:24:31.580Z,43.40
2018-03-26T08:26:57.564Z,43.22
2018-03-26T08:29:23.382Z,43.22
2018-03-26T08:31:52.655Z,43.27
2018-03-26T08:34:18.471Z,42.76
2018-03-26T08:36:44.288Z,41.67
2018-03-26T08:39:10.107Z,40.99
2018-03-26T08:41:36.542Z,41.41
2018-03-26T08:44:02.358Z,41.39
2018-03-26T08:46:28.179Z,41.90
2018-03-26T08:48:53.991Z,41.66
2018-03-26T08:51:19.849Z,43.75
2018-03-26T08:53:45.663Z,43.06
2018-03-26T08:56:11.478Z,42.91
2018-03-26T08:58:37.295Z,42.71
2018-03-26T09:01:03.115Z,42.98
2018-03-26T09:03:28.962Z,42.81
2018-03-26T09:05:54.771Z,42.98
2018-03-26T09:08:20.609Z,43.14
2018-03-26T09:10:46.418Z,43.10
2018-03-26T09:13:12.274Z,43.06
2018-03-26T09:15:38.085Z,43.18
2018-03-26T09:18:03.943Z,42.98
2018-03-26T09:20:29.771Z,43.26
2018-03-26T09:22:55.583Z,42.83
2018-03-26T09:25:21.398Z,43.52
2018-03-26T09:27:47.207Z,43.14
2018-03-26T09:30:13.018Z,43.40
2018-03-26T09:32:38.835Z,43.36
2018-03-26T09:35:04.642Z,43.07
2018-03-26T09:37:30.459Z,43.23
2018-03-26T09:39:56.271Z,43.00
2018-03-26T09:42:22.092Z,42.87
2018-03-26T09:44:47.919Z,43.25
2018-03-26T09:47:13.730Z,43.28
2018-03-26T09:49:39.542Z,43.23
2018-03-26T09:52:05.359Z,43.10
2018-03-26T09:54:31.194Z,43.18
2018-03-26T09:56:57.006Z,43.14
2018-03-26T09:59:22.818Z,43.35
2018-03-26T10:01:54.778Z,43.37
2018-03-26T10:04:20.594Z,43.50
2018-03-26T10:06:46.407Z,43.23
2018-03-26T10:09:12.219Z,43.29
2018-03-26T10:11:38.038Z,43.09
2018-03-26T10:14:03.846Z,43.10
2018-03-26T10:16:29.700Z,43.04
2018-03-26T10:18:55.520Z,43.31
2018-03-26T10:21:21.396Z,43.15
2018-03-26T10:23:47.218Z,43.09
2018-03-26T10:26:13.027Z,43.07
2018-03-26T10:28:38.843Z,43.01
2018-03-26T10:31:04.656Z,43.69
2018-03-26T10:33:30.467Z,43.47
2018-03-26T10:35:56.359Z,43.40
2018-03-26T10:38:22.220Z,43.47
2018-03-26T10:40:48.036Z,43.79
2018-03-26T10:43:14.058Z,43.70
2018-03-26T10:45:39.867Z,43.58
2018-03-26T10:48:05.749Z,43.22
2018-03-26T10:50:31.578Z,43.50
2018-03-26T10:52:57.563Z,44.09
2018-03-26T10:55:23.371Z,43.71
2018-03-26T10:57:49.435Z,43.55
2018-03-26T11:00:15.286Z,43.44
2018-03-26T11:02:41.103Z,43.30
2018-03-26T11:05:06.921Z,43.63
2018-03-26T11:07:32.773Z,43.44
2018-03-26T11:10:00.473Z,43.65
2018-03-26T11:23:22.676Z,44.03
2018-03-26T11:25:48.494Z,43.85
2018-03-26T11:28:14.310Z,43.83
2018-03-26T11:30:40.238Z,43.81
2018-03-26T11:33:06.159Z,43.75
2018-03-26T11:35:32.015Z,43.98
2018-03-26T11:38:00.735Z,44.22
2018-03-26T11:40:26.586Z,44.27
2018-03-26T11:42:52.394Z,43.89
2018-03-26T11:45:18.255Z,44.26
2018-03-26T11:47:44.070Z,44.07
2018-03-26T11:50:09.966Z,44.37
2018-03-26T11:52:35.774Z,44.36
2018-03-26T11:55:01.593Z,44.33
2018-03-26T11:57:27.397Z,44.37
2018-03-26T11:59:53.379Z,44.30
2018-03-26T12:02:19.246Z,44.29
2018-03-26T12:04:45.138Z,44.26
2018-03-26T12:07:10.999Z,44.35
2018-03-26T12:09:36.811Z,44.29
2018-03-26T12:12:02.623Z,44.51
2018-03-26T12:14:28.442Z,44.29
2018-03-26T12:16:54.255Z,44.29
2018-03-26T12:19:20.082Z,44.09
2018-03-26T12:21:45.895Z,44.14
2018-03-26T12:24:17.868Z,44.61
2018-03-26T12:26:43.704Z,44.36
2018-03-26T12:29:15.538Z,44.43
2018-03-26T12:31:41.354Z,44.67
2018-03-26T12:34:13.191Z,44.63
2018-03-26T12:36:38.999Z,44.93
2018-03-26T12:39:04.812Z,44.79
2018-03-26T12:41:30.633Z,44.82
2018-03-26T12:43:56.452Z,44.88
2018-03-26T12:46:28.476Z,44.84
2018-03-26T12:48:54.294Z,45.05
2018-03-26T12:51:26.304Z,45.18
2018-03-26T12:53:52.121Z,44.94
2018-03-26T12:56:17.971Z,44.97
2018-03-26T12:58:46.745Z,45.25
2018-03-26T13:01:18.896Z,45.22
2018-03-26T13:03:44.724Z,45.30
2018-03-26T13:06:10.573Z,45.04
2018-03-26T13:08:36.402Z,45.25
2018-03-26T13:11:02.283Z,44.54
2018-03-26T13:13:28.608Z,45.11
2018-03-26T13:15:54.434Z,45.99
2018-03-26T13:18:20.599Z,45.54
2018-03-26T13:20:46.422Z,45.44
2018-03-26T13:23:12.308Z,45.51
2018-03-26T13:25:38.122Z,45.56
2018-03-26T13:28:03.942Z,45.33
2018-03-26T13:30:29.761Z,45.11
2018-03-26T13:32:55.566Z,45.49
2018-03-26T13:35:21.416Z,45.28
2018-03-26T13:37:47.224Z,45.55
2018-03-26T13:40:13.051Z,45.56
2018-03-26T13:42:38.922Z,45.67
2018-03-26T13:45:04.907Z,45.63
2018-03-26T13:47:30.714Z,45.52
2018-03-26T13:49:56.575Z,45.54
2018-03-26T13:52:22.410Z,45.72
2018-03-26T13:54:48.275Z,45.55
2018-03-26T13:57:14.091Z,45.87
2018-03-26T13:59:39.952Z,45.70
2018-03-26T14:02:05.810Z,46.12
2018-03-26T14:04:31.662Z,45.80
2018-03-26T14:06:57.470Z,45.60
2018-03-26T14:09:29.409Z,45.79
2018-03-26T14:12:01.395Z,45.50
2018-03-26T14:14:33.386Z,45.91
2018-03-26T14:17:05.404Z,45.84
2018-03-26T14:19:31.257Z,45.88
2018-03-26T14:21:57.087Z,45.79
2018-03-26T14:24:22.903Z,45.81
2018-03-26T14:26:48.715Z,45.68
2018-03-26T14:29:14.532Z,45.30
2018-03-26T14:31:40.347Z,45.43
2018-03-26T14:34:06.153Z,45.72
2018-03-26T14:36:31.966Z,45.79
2018-03-26T14:38:57.784Z,45.99
2018-03-26T14:41:24.458Z,45.99
2018-03-26T14:43:50.291Z,46.10
2018-03-26T14:46:16.263Z,46.04
2018-03-26T14:48:42.118Z,45.86
2018-03-26T14:51:07.936Z,46.06
2018-03-26T14:53:33.862Z,45.94
2018-03-26T14:55:59.898Z,45.92
2018-03-26T14:58:25.702Z,46.14
2018-03-26T15:00:51.631Z,46.16
2018-03-26T15:03:17.456Z,46.18
2018-03-26T15:05:43.266Z,46.16
2018-03-26T15:08:09.071Z,45.92
2018-03-26T15:10:34.880Z,46.09
2018-03-26T15:13:00.742Z,46.27
2018-03-26T15:15:26.547Z,45.99
2018-03-26T15:17:52.378Z,46.01
2018-03-26T15:20:18.211Z,45.99
2018-03-26T15:22:44.028Z,45.93
2018-03-26T15:25:09.866Z,45.96
2018-03-26T15:27:35.679Z,45.97
2018-03-26T15:30:01.502Z,46.00
2018-03-26T15:32:27.350Z,45.79
2018-03-26T15:34:53.171Z,45.85
2018-03-26T15:37:19.064Z,45.93
2018-03-26T15:39:44.886Z,45.50
2018-03-26T15:42:10.776Z,45.66
2018-03-26T15:44:36.590Z,45.78
2018-03-26T15:47:02.406Z,45.74
2018-03-26T15:49:28.227Z,45.86
2018-03-26T15:51:54.038Z,45.74
2018-03-26T15:54:19.889Z,45.87
2018-03-26T15:56:45.702Z,45.86
2018-03-26T15:59:11.523Z,45.77
2018-03-26T16:01:37.356Z,45.81
2018-03-26T16:04:03.235Z,45.65
2018-03-26T16:06:29.023Z,45.57
2018-03-26T16:08:54.830Z,45.41
2018-03-26T16:11:20.642Z,45.47
2018-03-26T16:13:46.450Z,45.32
2018-03-26T16:16:12.259Z,45.69
2018-03-26T16:18:38.078Z,45.07
2018-03-26T16:21:03.890Z,45.42
2018-03-26T16:23:29.703Z,45.15
2018-03-26T16:25:55.567Z,45.73
2018-03-26T16:28:21.468Z,45.55
2018-03-26T16:30:47.378Z,44.86
2018-03-26T16:33:13.228Z,45.08
2018-03-26T16:35:39.107Z,45.26
2018-03-26T16:38:04.918Z,45.42
2018-03-26T16:40:30.743Z,44.90
2018-03-26T16:43:06.667Z,44.16
2018-03-26T16:45:32.639Z,45.04
2018-03-26T16:47:58.582Z,45.23
2018-03-26T16:50:24.497Z,44.35
2018-03-26T16:52:50.303Z,44.19
2018-03-26T16:55:16.122Z,44.01
2018-03-26T16:57:41.935Z,43.00
2018-03-26T17:02:52.866Z,43.18
2018-03-26T17:05:18.729Z,43.39
2018-03-26T17:07:44.540Z,43.42
2018-03-26T17:10:10.359Z,43.29
2018-03-26T17:12:36.190Z,42.83
2018-03-26T17:15:02.179Z,42.83
2018-03-26T17:17:27.995Z,43.67
2018-03-26T17:19:53.835Z,43.33
2018-03-26T17:22:19.637Z,42.55
2018-03-26T17:24:45.618Z,42.63
2018-03-26T17:27:11.509Z,43.03
2018-03-26T17:29:37.328Z,43.37
2018-03-26T17:32:03.183Z,43.28
2018-03-26T17:34:29.002Z,43.42
2018-03-26T17:36:54.830Z,42.52
2018-03-26T17:39:20.700Z,42.73
2018-03-26T17:41:46.506Z,43.50
2018-03-26T17:44:12.319Z,43.44
2018-03-26T17:46:38.131Z,43.42
2018-03-26T17:49:03.947Z,43.22
2018-03-26T17:51:29.769Z,42.94
2018-03-26T17:53:55.586Z,42.62
2018-03-26T17:56:21.452Z,43.39
2018-03-26T17:58:47.342Z,43.99
2018-03-26T18:01:13.163Z,43.32
2018-03-26T18:03:38.971Z,43.72
2018-03-26T18:06:04.794Z,44.26
2018-03-26T18:08:30.609Z,44.44
2018-03-26T18:10:56.426Z,44.28
2018-03-26T18:13:22.242Z,43.99
2018-03-26T18:15:48.058Z,43.88
2018-03-26T18:18:13.893Z,43.93
2018-03-26T18:20:39.711Z,43.76
2018-03-26T18:23:05.539Z,43.75
2018-03-26T18:25:31.363Z,44.14
2018-03-26T18:27:57.180Z,43.84
2018-03-26T18:30:22.995Z,44.16
2018-03-26T18:32:48.810Z,43.99
2018-03-26T18:35:14.636Z,43.85
2018-03-26T18:37:40.453Z,43.82
2018-03-26T18:40:06.267Z,43.18
2018-03-26T18:42:32.092Z,43.82
2018-03-26T18:44:58.090Z,43.81
2018-03-26T18:47:23.907Z,43.63
2018-03-26T18:49:49.850Z,43.99
2018-03-26T18:52:15.680Z,43.88
2018-03-26T18:54:41.495Z,43.93
2018-03-26T18:57:07.367Z,43.79
2018-03-26T18:59:33.291Z,43.94
2018-03-26T19:01:59.301Z,44.01
2018-03-26T19:04:25.406Z,43.83
2018-03-26T19:06:51.234Z,43.76
2018-03-26T19:09:17.210Z,44.18
2018-03-26T19:11:43.031Z,43.91
2018-03-26T19:14:09.016Z,43.87
2018-03-26T19:16:34.830Z,43.82
2018-03-26T19:19:00.798Z,43.71
2018-03-26T19:21:26.752Z,43.91
2018-03-26T19:23:52.572Z,43.63
2018-03-26T19:26:18.394Z,43.20
2018-03-26T19:28:44.253Z,43.70
2018-03-26T19:31:10.084Z,43.85
2018-03-26T19:33:36.025Z,43.87
2018-03-26T19:36:01.848Z,44.10
2018-03-26T19:38:27.667Z,43.48
2018-03-26T19:40:53.723Z,42.97
2018-03-26T19:43:19.558Z,43.19
2018-03-26T19:45:45.498Z,43.71
2018-03-26T19:48:11.314Z,44.28
2018-03-26T19:50:37.283Z,43.77
2018-03-26T19:53:03.127Z,43.84
2018-03-26T19:55:28.982Z,43.59
2018-03-26T19:57:54.927Z,43.41
2018-03-26T20:00:20.731Z,43.74
2018-03-26T20:02:46.554Z,43.55
2018-03-26T20:05:12.503Z,43.08
2018-03-26T20:07:38.486Z,43.59
2018-03-26T20:10:04.304Z,43.24
2018-03-26T20:12:30.271Z,43.30
2018-03-26T20:14:56.213Z,42.94
2018-03-26T20:17:22.203Z,43.10
2018-03-26T20:19:48.133Z,42.94
2018-03-26T20:22:13.995Z,42.61
2018-03-26T20:24:39.826Z,42.17
2018-03-26T20:27:05.651Z,42.87
2018-03-26T20:29:31.618Z,43.13
2018-03-26T20:31:57.480Z,43.25
2018-03-26T20:34:23.299Z,43.08
2018-03-26T20:36:49.154Z,43.09
2018-03-26T20:39:14.975Z,43.27
2018-03-26T20:41:40.790Z,43.83
2018-03-26T20:44:06.747Z,43.25
2018-03-26T20:46:32.657Z,43.27
2018-03-26T20:48:58.602Z,42.68
2018-03-26T20:51:24.606Z,42.83
2018-03-26T20:53:50.421Z,43.24
2018-03-26T20:56:16.233Z,43.08
2018-03-26T20:58:42.048Z,43.43
2018-03-26T21:01:08.003Z,43.49
2018-03-26T21:03:33.855Z,42.69
2018-03-26T21:05:59.667Z,42.61
2018-03-26T21:08:25.491Z,43.27
2018-03-26T21:10:51.320Z,44.12
2018-03-26T21:13:17.130Z,43.71
2018-03-26T21:15:42.969Z,43.57
2018-03-26T21:18:08.791Z,43.44
2018-03-26T21:20:34.598Z,43.18
2018-03-26T21:23:00.410Z,43.32
2018-03-26T21:25:26.214Z,43.38
2018-03-26T21:27:52.027Z,44.03
2018-03-26T21:30:17.838Z,43.41
2018-03-26T21:32:43.691Z,43.77
2018-03-26T21:35:09.502Z,43.82
2018-03-26T21:37:35.315Z,43.90
2018-03-26T21:40:01.132Z,43.49
2018-03-26T21:42:26.949Z,43.75
2018-03-26T21:44:52.763Z,43.33
2018-03-26T21:47:18.578Z,43.15
2018-03-26T21:49:44.395Z,42.56
2018-03-26T21:52:10.255Z,42.79
2018-03-26T21:54:36.075Z,43.17
2018-03-26T21:57:01.893Z,43.44
2018-03-26T22:07:39.839Z,43.83
2018-03-26T22:10:05.654Z,42.78
2018-03-26T22:12:31.535Z,42.45
2018-03-26T22:14:58.318Z,42.28
2018-03-26T22:17:24.373Z,42.53
2018-03-26T22:19:50.222Z,42.53
2018-03-26T22:22:16.096Z,43.01
2018-03-26T22:27:13.577Z,42.91
2018-03-26T22:29:39.546Z,42.49
2018-03-26T22:32:05.441Z,42.17
2018-03-26T22:34:31.420Z,42.82
2018-03-26T22:36:57.201Z,43.04
2018-03-26T22:39:23.769Z,42.57
2018-03-26T22:41:49.542Z,42.61
2018-03-26T22:52:41.074Z,43.09
2018-03-26T22:55:08.432Z,42.87
2018-03-26T22:57:34.209Z,42.65
2018-03-26T23:00:00.325Z,43.16
2018-03-26T23:02:26.109Z,42.70
2018-03-26T23:04:51.887Z,42.24
2018-03-26T23:07:17.716Z,41.85
2018-03-26T23:09:43.477Z,42.08
2018-03-26T23:12:09.311Z,42.38
2018-03-26T23:14:35.085Z,43.03
2018-03-26T23:17:00.864Z,42.85
2018-03-26T23:19:26.645Z,43.03
2018-03-26T23:21:52.426Z,42.58
2018-03-26T23:24:18.205Z,42.79
2018-03-26T23:26:43.982Z,42.46
2018-03-26T23:29:09.763Z,43.02
2018-03-26T23:31:35.546Z,42.20
2018-03-26T23:34:01.324Z,42.59
2018-03-26T23:36:27.096Z,43.23
2018-03-26T23:38:52.878Z,42.36
2018-03-26T23:41:18.670Z,41.99
2018-03-26T23:43:44.453Z,41.88
2018-03-26T23:46:10.239Z,42.53
2018-03-26T23:48:36.065Z,42.11
2018-03-26T23:51:01.874Z,42.72
2018-03-26T23:53:27.657Z,42.35
2018-03-26T23:55:53.439Z,42.52
2018-03-26T23:58:19.228Z,42.02
